Time;durP1;ratioP1;P1;durP2;ratioP2;P2;SDS_P1;SDS_P2;PMS_P1;PMS_P2;Temp;Humidity;BMP_temperature;BMP_pressure;BME280_temperature;BME280_humidity;BME280_pressure;Samples;Min_cycle;Max_cycle;Signal;HPM_P1;HPM_P2
2023/05/21 00:01:33;;;;;;;;;6.25;6.25;;;;;22.18;43.42;100985.81;5066424;27;68147;-76
2023/05/21 00:03:58;;;;;;;;;7.00;6.25;;;;;22.17;43.94;100973.47;5069329;28;45338;-76
2023/05/21 00:06:23;;;;;;;;;6.75;5.25;;;;;22.16;43.82;100983.25;5065787;28;45348;-76
2023/05/21 00:08:49;;;;;;;;;8.25;7.00;;;;;22.15;43.93;100983.34;5089359;27;45510;-76
2023/05/21 00:11:14;;;;;;;;;8.50;6.25;;;;;22.17;43.67;100982.31;5066863;28;45584;-76
2023/05/21 00:13:40;;;;;;;;;8.50;8.50;;;;;22.15;43.64;100976.22;5060792;28;45682;-76
2023/05/21 00:16:05;;;;;;;;;6.50;5.75;;;;;22.16;43.56;100985.91;5049783;28;45475;-76
2023/05/21 00:18:33;;;;;;;;;6.75;5.25;;;;;22.13;43.41;100967.50;5069816;28;45204;-76
2023/05/21 00:20:58;;;;;;;;;6.25;5.50;;;;;22.14;43.65;100974.50;5067286;28;45457;-76
2023/05/21 00:23:25;;;;;;;;;6.00;5.75;;;;;22.11;43.82;100958.72;5066783;28;47094;-76
2023/05/21 00:25:51;;;;;;;;;7.00;7.00;;;;;22.15;43.84;100970.03;5064975;28;45430;-76
2023/05/21 00:28:16;;;;;;;;;6.50;6.25;;;;;22.11;43.95;100966.72;5072462;28;45523;-76
2023/05/21 00:30:42;;;;;;;;;7.25;6.25;;;;;22.13;43.61;100970.16;5064147;28;61024;-76
2023/05/21 00:33:09;;;;;;;;;7.50;6.25;;;;;22.11;44.04;100969.41;5063629;28;67719;-76
2023/05/21 00:35:34;;;;;;;;;7.00;5.75;;;;;22.09;43.73;100970.47;5058875;28;45352;-76
2023/05/21 00:38:00;;;;;;;;;8.00;5.25;;;;;22.11;43.48;100965.88;5058822;28;45218;-75
2023/05/21 00:40:26;;;;;;;;;4.50;4.50;;;;;22.10;43.93;100965.03;5064677;28;45308;-75
2023/05/21 00:42:55;;;;;;;;;7.75;7.25;;;;;22.09;43.75;100962.47;5055719;28;68085;-76
2023/05/21 00:45:22;;;;;;;;;8.00;7.00;;;;;22.10;43.75;100962.38;5071810;27;46003;-76
2023/05/21 00:47:53;;;;;;;;;8.75;5.50;;;;;22.09;43.81;100958.00;5049071;28;45450;-75
2023/05/21 00:50:19;;;;;;;;;7.25;5.75;;;;;22.09;43.44;100950.00;5080454;27;45421;-76
2023/05/21 00:52:44;;;;;;;;;6.75;6.75;;;;;22.08;43.82;100950.97;5076783;28;45737;-76
2023/05/21 00:55:10;;;;;;;;;7.50;5.50;;;;;22.04;43.83;100946.81;5065756;28;45599;-76
2023/05/21 00:57:36;;;;;;;;;7.75;5.75;;;;;22.08;43.84;100950.09;5063342;28;68544;-76
2023/05/21 01:00:03;;;;;;;;;5.50;5.50;;;;;22.07;43.69;100945.75;5056631;28;57983;-76
2023/05/21 01:02:31;;;;;;;;;6.00;5.25;;;;;22.04;43.60;100940.63;5071144;28;47553;-76
2023/05/21 01:04:59;;;;;;;;;6.25;5.50;;;;;22.01;43.84;100939.06;5065259;28;45593;-76
2023/05/21 01:07:24;;;;;;;;;8.00;7.00;;;;;22.02;43.42;100940.75;5074821;28;45320;-75
2023/05/21 01:09:50;;;;;;;;;9.75;6.25;;;;;22.03;43.64;100949.59;5064896;28;45285;-75
2023/05/21 01:12:16;;;;;;;;;8.75;7.00;;;;;22.02;43.86;100939.91;5045559;28;48406;-75
2023/05/21 01:14:42;;;;;;;;;6.75;6.75;;;;;22.03;43.88;100942.47;5048272;28;46012;-74
2023/05/21 01:17:09;;;;;;;;;6.75;5.25;;;;;22.01;43.73;100941.72;5059386;28;45411;-74
2023/05/21 01:19:35;;;;;;;;;8.50;6.50;;;;;21.94;43.47;100924.47;5052051;28;45658;-75
2023/05/21 01:22:04;;;;;;;;;7.75;6.75;;;;;21.93;43.32;100925.44;5064122;28;45477;-76
2023/05/21 01:24:30;;;;;;;;;6.75;6.00;;;;;21.97;43.87;100938.44;5054088;28;45578;-76
2023/05/21 01:26:57;;;;;;;;;6.25;6.00;;;;;21.97;43.60;100938.44;5063508;28;45383;-76
2023/05/21 01:29:23;;;;;;;;;5.75;5.75;;;;;22.00;44.09;100945.34;5070536;28;45635;-77
2023/05/21 01:31:56;;;;;;;;;7.50;7.50;;;;;21.99;43.44;100943.63;5064544;28;47159;-76
2023/05/21 01:34:27;;;;;;;;;9.50;6.50;;;;;21.95;43.79;100940.31;5090704;27;45763;-77
2023/05/21 01:36:59;;;;;;;;;5.50;5.25;;;;;21.98;44.07;100957.94;5079360;27;45391;-76
2023/05/21 01:39:37;;;;;;;;;7.75;6.25;;;;;21.95;44.15;100945.66;5065329;27;45393;-76
2023/05/21 01:42:07;;;;;;;;;8.00;6.25;;;;;21.96;43.89;100946.53;5065538;28;47664;-76
2023/05/21 01:44:32;;;;;;;;;10.00;8.00;;;;;21.88;43.93;100932.91;5075237;28;45995;-76
2023/05/21 01:46:58;;;;;;;;;7.50;7.00;;;;;21.91;43.64;100932.69;5055760;28;57100;-76
2023/05/21 01:49:23;;;;;;;;;7.75;7.75;;;;;21.91;43.88;100940.69;5065211;28;45600;-75
2023/05/21 01:51:49;;;;;;;;;7.50;7.50;;;;;21.92;43.98;100943.25;5060129;28;53005;-76
2023/05/21 01:54:14;;;;;;;;;10.25;7.00;;;;;21.89;44.10;100932.78;5067834;28;71856;-76
2023/05/21 01:56:40;;;;;;;;;7.75;7.50;;;;;21.88;44.08;100927.56;5068125;28;45757;-76
2023/05/21 01:59:05;;;;;;;;;7.25;7.25;;;;;21.94;44.04;100945.78;5071286;28;45489;-76
2023/05/21 02:01:30;;;;;;;;;9.75;7.00;;;;;21.93;43.66;100942.25;5062365;28;68106;-76
2023/05/21 02:03:59;;;;;;;;;8.75;7.00;;;;;21.90;43.95;100937.16;5062821;27;70674;-76
2023/05/21 02:06:25;;;;;;;;;7.75;7.75;;;;;21.91;43.75;100940.69;5068958;28;45445;-76
2023/05/21 02:08:50;;;;;;;;;4.50;4.50;;;;;21.93;43.75;100946.75;5088638;27;45477;-75
2023/05/21 02:11:16;;;;;;;;;6.75;6.00;;;;;21.89;43.56;100942.59;5056332;28;46634;-75
2023/05/21 02:13:41;;;;;;;;;8.25;5.25;;;;;21.93;43.91;100952.06;5048755;28;45487;-76
2023/05/21 02:16:10;;;;;;;;;11.00;8.00;;;;;21.87;44.21;100940.03;5071316;27;45439;-76
2023/05/21 02:18:37;;;;;;;;;6.50;6.50;;;;;21.89;43.93;100935.44;5077057;27;45525;-76
2023/05/21 02:21:02;;;;;;;;;9.00;7.75;;;;;21.87;43.76;100937.38;5079784;27;46678;-76
2023/05/21 02:23:27;;;;;;;;;8.75;7.00;;;;;21.87;43.81;100940.03;5067069;28;45235;-76
2023/05/21 02:25:53;;;;;;;;;7.00;6.50;;;;;21.89;43.66;100938.13;5063983;27;68232;-76
2023/05/21 02:28:20;;;;;;;;;8.00;7.00;;;;;21.88;43.98;100947.06;5059903;28;45550;-76
2023/05/21 02:30:45;;;;;;;;;9.25;6.25;;;;;21.87;43.59;100950.69;5064098;28;47331;-76
2023/05/21 02:33:13;;;;;;;;;9.75;9.00;;;;;21.86;43.49;100942.81;5065284;28;45430;-76
2023/05/21 02:35:38;;;;;;;;;8.25;7.75;;;;;21.83;43.82;100937.69;5065209;27;45498;-76
2023/05/21 02:38:04;;;;;;;;;9.50;8.00;;;;;21.87;43.87;100953.38;5062205;28;46027;-76
2023/05/21 02:40:29;;;;;;;;;13.25;6.75;;;;;21.86;43.99;100945.47;5055304;28;64092;-77
2023/05/21 02:42:54;;;;;;;;;8.25;8.00;;;;;21.86;43.67;100946.31;5062153;28;45341;-76
2023/05/21 02:45:20;;;;;;;;;8.00;8.00;;;;;21.85;43.66;100944.63;5055200;28;45486;-76
2023/05/21 02:47:45;;;;;;;;;11.75;9.00;;;;;21.84;43.82;100942.06;5063293;28;45562;-76
2023/05/21 02:50:12;;;;;;;;;8.50;6.75;;;;;21.84;43.74;100942.91;5063848;28;48302;-75
2023/05/21 02:52:38;;;;;;;;;8.00;8.00;;;;;21.84;43.97;100937.59;5082150;27;45274;-75
2023/05/21 02:55:03;;;;;;;;;9.75;7.25;;;;;21.84;43.82;100950.06;5055761;28;45590;-75
2023/05/21 02:57:29;;;;;;;;;7.00;7.00;;;;;21.84;43.90;100950.91;5069509;28;45496;-75
2023/05/21 02:59:54;;;;;;;;;9.00;7.50;;;;;21.83;43.89;100946.53;5061940;28;65420;-76
2023/05/21 03:02:19;;;;;;;;;9.25;7.00;;;;;21.83;43.99;100945.69;5069103;28;45580;-75
2023/05/21 03:04:45;;;;;;;;;8.25;8.25;;;;;21.80;43.61;100939.63;5059570;28;45486;-76
2023/05/21 03:07:14;;;;;;;;;7.75;7.50;;;;;21.80;43.90;100941.44;5062768;28;69710;-77
2023/05/21 03:09:43;;;;;;;;;10.00;8.75;;;;;21.82;44.04;100933.34;5072731;28;46289;-77
2023/05/21 03:12:09;;;;;;;;;10.25;7.75;;;;;21.79;43.54;100937.91;5075039;28;45381;-78
2023/05/21 03:14:34;;;;;;;;;8.25;7.50;;;;;21.80;44.18;100950.28;5069256;28;45328;-77
2023/05/21 03:17:00;;;;;;;;;9.75;7.00;;;;;21.79;44.23;100943.22;5066122;28;61624;-78
2023/05/21 03:19:25;;;;;;;;;9.00;8.00;;;;;21.74;43.84;100936.53;5076288;28;47091;-77
2023/05/21 03:21:51;;;;;;;;;9.50;8.25;;;;;21.79;43.92;100948.56;5063579;28;45505;-77
2023/05/21 03:24:17;;;;;;;;;8.75;6.50;;;;;21.73;43.65;100941.03;5070496;28;45527;-77
2023/05/21 03:26:42;;;;;;;;;13.00;8.50;;;;;21.79;44.03;100956.56;5065961;28;45445;-77
2023/05/21 03:29:08;;;;;;;;;13.00;10.00;;;;;21.78;44.03;100962.88;5065023;28;62482;-77
2023/05/21 03:31:33;;;;;;;;;9.75;8.00;;;;;21.77;44.04;100966.47;5037822;28;48865;-76
2023/05/21 03:33:58;;;;;;;;;8.75;7.00;;;;;21.77;43.72;100958.47;5090975;27;63695;-77
2023/05/21 03:36:24;;;;;;;;;10.00;8.00;;;;;21.77;44.08;100962.97;5064839;28;62205;-77
2023/05/21 03:38:49;;;;;;;;;8.00;8.00;;;;;21.76;43.61;100961.25;5068506;28;46353;-77
2023/05/21 03:41:15;;;;;;;;;7.00;6.00;;;;;21.74;43.95;100953.41;5050011;28;46232;-77
2023/05/21 03:43:40;;;;;;;;;7.25;7.25;;;;;21.77;43.63;100952.31;5074822;28;45320;-77
2023/05/21 03:46:05;;;;;;;;;8.75;8.75;;;;;21.74;43.95;100948.06;5067211;28;45232;-77
2023/05/21 03:48:31;;;;;;;;;9.00;9.00;;;;;21.73;44.00;100957.00;5059510;28;54660;-78
2023/05/21 03:50:56;;;;;;;;;9.25;7.00;;;;;21.73;43.88;100961.50;5059082;28;45983;-77
2023/05/21 03:53:21;;;;;;;;;10.00;9.50;;;;;21.73;43.82;100967.66;5085836;27;56450;-76
2023/05/21 03:55:53;;;;;;;;;9.75;8.50;;;;;21.72;44.09;100959.78;5063380;28;45537;-77
2023/05/21 03:58:20;;;;;;;;;9.75;8.00;;;;;21.71;44.22;100960.72;5073729;28;45493;-76
2023/05/21 04:00:46;;;;;;;;;11.00;9.50;;;;;21.70;43.92;100961.69;5071275;28;45806;-77
2023/05/21 04:03:11;;;;;;;;;8.25;8.25;;;;;21.69;43.74;100958.19;5074805;27;45429;-77
2023/05/21 04:05:36;;;;;;;;;10.75;8.00;;;;;21.71;43.98;100961.59;5061417;28;71570;-77
2023/05/21 04:08:01;;;;;;;;;11.75;7.75;;;;;21.70;44.21;100959.88;5067858;28;74651;-77
2023/05/21 04:10:27;;;;;;;;;12.50;8.25;;;;;21.70;44.23;100972.34;5065735;28;69102;-77
2023/05/21 04:12:52;;;;;;;;;9.75;8.00;;;;;21.73;43.61;100972.16;5067546;28;45392;-78
2023/05/21 04:15:18;;;;;;;;;8.50;7.00;;;;;21.67;44.10;100967.22;5074343;27;71223;-77
2023/05/21 04:17:46;;;;;;;;;11.50;7.00;;;;;21.68;44.09;100972.44;5070564;28;46436;-76
2023/05/21 04:20:12;;;;;;;;;9.00;8.75;;;;;21.69;43.95;100976.84;5059727;28;45474;-76
2023/05/21 04:22:42;;;;;;;;;11.00;9.00;;;;;21.70;43.84;100983.84;5067699;28;56732;-76
2023/05/21 04:25:07;;;;;;;;;7.25;4.00;;;;;21.69;43.80;100983.94;5073326;27;45356;-76
2023/05/21 04:27:33;;;;;;;;;11.75;8.75;;;;;21.65;43.87;100972.66;5088686;27;46085;-77
2023/05/21 04:29:59;;;;;;;;;12.00;8.00;;;;;21.65;43.95;100980.66;5072552;28;45414;-78
2023/05/21 04:32:24;;;;;;;;;9.50;9.00;;;;;21.68;43.54;100983.09;5052559;28;62579;-78
2023/05/21 04:34:50;;;;;;;;;10.75;8.25;;;;;21.68;43.96;100988.44;5058839;28;72582;-77
2023/05/21 04:37:18;;;;;;;;;7.00;6.50;;;;;21.65;43.97;100990.47;5064400;28;46341;-78
2023/05/21 04:39:44;;;;;;;;;10.75;8.25;;;;;21.65;44.08;100985.97;5062744;28;45600;-78
2023/05/21 04:42:12;;;;;;;;;9.25;7.50;;;;;21.65;43.73;100982.47;5070455;28;45407;-77
2023/05/21 04:44:39;;;;;;;;;8.50;6.75;;;;;21.65;43.62;100983.31;5076100;27;45427;-76
2023/05/21 04:47:04;;;;;;;;;9.25;9.00;;;;;21.65;43.64;100991.31;5059232;28;47057;-77
2023/05/21 04:49:30;;;;;;;;;8.50;7.00;;;;;21.64;43.77;100983.41;5069342;28;45269;-77
2023/05/21 04:51:55;;;;;;;;;8.75;8.25;;;;;21.65;44.03;100993.13;5051436;28;67983;-77
2023/05/21 04:54:21;;;;;;;;;8.25;8.00;;;;;21.65;43.83;100998.44;5069415;28;45679;-79
2023/05/21 04:56:46;;;;;;;;;8.00;8.00;;;;;21.65;43.93;100996.63;5071725;28;46286;-78
2023/05/21 04:59:12;;;;;;;;;8.00;7.25;;;;;21.64;43.83;100996.75;5059716;28;45510;-78
2023/05/21 05:01:38;;;;;;;;;8.00;8.00;;;;;21.65;43.74;100998.44;5065514;28;45378;-78
2023/05/21 05:04:03;;;;;;;;;11.75;9.25;;;;;21.61;43.75;100988.00;5072700;28;45412;-78
2023/05/21 05:06:29;;;;;;;;;9.00;8.00;;;;;21.65;43.69;100993.13;5062595;28;46659;-78
2023/05/21 05:08:54;;;;;;;;;10.00;9.75;;;;;21.61;43.96;100982.69;5066279;27;45509;-77
2023/05/21 05:11:19;;;;;;;;;7.50;7.50;;;;;21.60;43.91;100983.66;5061540;28;63964;-78
2023/05/21 05:13:45;;;;;;;;;10.50;8.25;;;;;21.58;44.10;100977.59;5056366;28;57923;-78
2023/05/21 05:16:11;;;;;;;;;9.25;9.25;;;;;21.63;43.92;100995.06;5066730;28;46171;-78
2023/05/21 05:18:37;;;;;;;;;8.75;7.25;;;;;21.63;43.80;100989.72;5063617;28;45309;-77
2023/05/21 05:21:02;;;;;;;;;8.75;7.50;;;;;21.62;43.74;100991.53;5076824;28;45829;-77
2023/05/21 05:23:27;;;;;;;;;11.50;9.00;;;;;21.59;43.66;100989.94;5067047;28;45387;-78
2023/05/21 05:25:53;;;;;;;;;9.50;7.50;;;;;21.60;43.93;100982.78;5060734;28;56099;-78
2023/05/21 05:28:18;;;;;;;;;4.25;4.25;;;;;21.58;43.77;100977.59;5069382;28;59886;-77
2023/05/21 05:30:43;;;;;;;;;12.75;9.00;;;;;21.61;44.00;100988.00;5067668;28;61054;-78
2023/05/21 05:33:10;;;;;;;;;10.75;8.75;;;;;21.62;43.76;100988.88;5075293;27;60556;-78
2023/05/21 05:35:35;;;;;;;;;12.00;8.25;;;;;21.61;44.02;100988.00;5056585;28;48475;-79
2023/05/21 05:38:00;;;;;;;;;8.00;8.00;;;;;21.55;43.83;100977.78;5066531;28;66705;-78
2023/05/21 05:40:26;;;;;;;;;8.50;8.00;;;;;21.60;44.00;100994.31;5070539;28;45789;-77
2023/05/21 05:42:51;;;;;;;;;10.75;9.75;;;;;21.60;43.67;100986.31;5060076;28;64041;-77
2023/05/21 05:45:17;;;;;;;;;12.50;9.00;;;;;21.61;44.03;100998.66;5062516;27;47775;-77
2023/05/21 05:47:43;;;;;;;;;12.00;10.50;;;;;21.60;43.48;100994.31;5061499;28;46053;-77
2023/05/21 05:50:08;;;;;;;;;9.00;9.00;;;;;21.58;44.06;100998.03;5051104;28;45435;-76
2023/05/21 05:52:33;;;;;;;;;11.50;8.50;;;;;21.60;44.08;100996.09;5062179;28;45514;-76
2023/05/21 05:54:59;;;;;;;;;7.25;7.25;;;;;21.59;43.70;101002.41;5062709;27;72414;-77
2023/05/21 05:57:24;;;;;;;;;8.75;7.75;;;;;21.60;43.71;100993.44;5064714;27;69310;-77
2023/05/21 05:59:49;;;;;;;;;9.00;8.25;;;;;21.61;43.70;100993.34;5062565;28;45426;-77
2023/05/21 06:02:15;;;;;;;;;10.75;9.75;;;;;21.60;43.85;101010.28;5063055;28;57197;-77
2023/05/21 06:04:40;;;;;;;;;10.25;9.25;;;;;21.60;43.96;101004.09;5049027;28;71995;-78
2023/05/21 06:07:06;;;;;;;;;9.00;7.00;;;;;21.59;44.12;101008.56;5054679;28;46405;-78
2023/05/21 06:09:31;;;;;;;;;11.50;10.00;;;;;21.59;44.24;100997.06;5070698;27;63165;-77
2023/05/21 06:11:57;;;;;;;;;9.25;8.00;;;;;21.60;44.12;101004.09;5074531;27;58763;-78
2023/05/21 06:14:22;;;;;;;;;14.00;10.75;;;;;21.60;44.14;101006.75;5074813;27;69201;-78
2023/05/21 06:16:47;;;;;;;;;10.50;9.50;;;;;21.58;43.95;100998.03;5083791;27;62607;-76
2023/05/21 06:19:13;;;;;;;;;10.25;9.00;;;;;21.60;44.07;100998.75;5061385;28;46203;-78
2023/05/21 06:21:38;;;;;;;;;9.00;8.25;;;;;21.58;44.22;100998.91;5057562;28;63446;-79
2023/05/21 06:24:04;;;;;;;;;14.00;10.25;;;;;21.59;43.91;100999.75;5073694;28;67056;-78
2023/05/21 06:26:29;;;;;;;;;11.00;10.25;;;;;21.61;43.65;100998.66;5072873;27;45410;-79
2023/05/21 06:28:55;;;;;;;;;12.25;8.50;;;;;21.60;43.88;100996.97;5076652;27;45331;-79
2023/05/21 06:31:21;;;;;;;;;10.25;9.00;;;;;21.59;44.19;101003.25;5080664;27;45980;-79
2023/05/21 06:33:48;;;;;;;;;9.50;9.50;;;;;21.62;43.98;101012.84;5054732;28;46928;-78
2023/05/21 06:36:13;;;;;;;;;12.75;9.50;;;;;21.60;44.09;101007.63;5066702;28;46372;-79
2023/05/21 06:38:39;;;;;;;;;13.00;10.00;;;;;21.63;44.06;101011.03;5070826;28;45451;-79
2023/05/21 06:41:05;;;;;;;;;9.50;8.00;;;;;21.61;44.15;101008.47;5061865;28;45557;-79
2023/05/21 06:43:30;;;;;;;;;11.00;8.50;;;;;21.65;43.93;101009.94;5065600;28;45529;-78
2023/05/21 06:45:55;;;;;;;;;10.25;9.25;;;;;21.65;44.19;101009.94;5044555;28;68118;-79
2023/05/21 06:48:21;;;;;;;;;10.25;10.25;;;;;21.66;44.35;101005.50;5086936;27;45288;-79
2023/05/21 06:50:46;;;;;;;;;10.25;9.25;;;;;21.63;44.28;101003.03;5049749;28;58372;-79
2023/05/21 06:53:15;;;;;;;;;11.00;8.00;;;;;21.64;44.44;101007.38;5061059;28;67646;-74
2023/05/21 06:55:43;;;;;;;;;15.00;13.75;;;;;21.64;43.96;101004.72;5044912;28;45487;-76
2023/05/21 06:58:09;;;;;;;;;16.00;13.00;;;;;21.65;44.21;101007.28;5070973;28;45455;-82
2023/05/21 07:00:35;;;;;;;;;14.25;13.00;;;;;21.60;44.12;100996.09;5052431;28;45549;-78
2023/05/21 07:03:00;;;;;;;;;17.50;15.00;;;;;21.66;44.17;101003.69;5055163;28;59276;-74
2023/05/21 07:05:25;;;;;;;;;19.00;16.00;;;;;21.67;44.05;101007.19;5062329;28;66953;-75
2023/05/21 07:07:51;;;;;;;;;18.75;14.50;;;;;21.65;43.81;101012.63;5055432;28;63029;-82
2023/05/21 07:10:16;;;;;;;;;17.00;17.00;;;;;21.65;44.28;101007.28;5061446;28;64791;-86
2023/05/21 07:12:41;;;;;;;;;14.75;13.25;;;;;21.65;43.94;101006.44;5077970;27;46514;-85
2023/05/21 07:15:08;;;;;;;;;16.50;15.50;;;;;21.64;43.43;101013.59;5066901;28;66974;-84
2023/05/21 07:17:33;;;;;;;;;18.00;15.50;;;;;21.65;43.75;101009.94;5056756;28;45744;-85
2023/05/21 07:19:58;;;;;;;;;19.50;16.00;;;;;21.63;44.25;101003.88;5065633;28;64629;-85
2023/05/21 07:22:23;;;;;;;;;15.00;13.25;;;;;21.64;43.72;101013.59;5066439;28;46167;-74
2023/05/21 07:24:49;;;;;;;;;16.75;16.00;;;;;21.63;44.10;101009.22;5073476;28;58087;-77
2023/05/21 07:27:14;;;;;;;;;16.75;12.75;;;;;21.61;43.80;101011.97;5063119;28;45303;-75
2023/05/21 07:29:39;;;;;;;;;18.00;15.00;;;;;21.64;43.93;101013.59;5069333;28;59201;-76
2023/05/21 07:32:05;;;;;;;;;19.00;15.25;;;;;21.66;43.80;101016.16;5068622;28;70438;-76
2023/05/21 07:34:31;;;;;;;;;15.50;15.25;;;;;21.63;43.88;101003.03;5053817;28;45769;-74
2023/05/21 07:36:57;;;;;;;;;19.50;16.75;;;;;21.66;43.35;101016.16;5052741;28;45450;-87
2023/05/21 07:39:22;;;;;;;;;17.00;14.50;;;;;21.60;43.42;101002.31;5050865;28;45636;-77
2023/05/21 07:41:47;;;;;;;;;19.75;15.25;;;;;21.61;43.37;101003.97;5070806;28;70064;-82
2023/05/21 07:44:13;;;;;;;;;16.75;14.50;;;;;21.64;43.65;101007.38;5068528;28;59855;-76
2023/05/21 07:46:38;;;;;;;;;19.25;15.00;;;;;21.65;43.45;101020.59;5066321;28;45427;-77
2023/05/21 07:49:03;;;;;;;;;12.75;12.75;;;;;21.67;43.61;101017.84;5044436;27;62603;-74
2023/05/21 07:51:29;;;;;;;;;17.00;15.00;;;;;21.66;43.65;100997.50;5072114;27;55200;-75
2023/05/21 07:53:55;;;;;;;;;12.50;12.50;;;;;21.67;43.76;101010.69;5063459;27;45593;-80
2023/05/21 07:56:20;;;;;;;;;17.75;13.50;;;;;21.68;43.70;101001.75;5059685;28;45505;-86
2023/05/21 07:58:46;;;;;;;;;17.25;14.00;;;;;21.67;43.65;100997.38;5069866;28;49115;-84
2023/05/21 08:01:11;;;;;;;;;14.25;12.00;;;;;21.71;43.62;101000.69;5060138;27;46103;-87
2023/05/21 08:03:37;;;;;;;;;15.75;14.50;;;;;21.72;43.52;101013.88;5071817;28;45673;-86
2023/05/21 08:06:02;;;;;;;;;12.50;11.00;;;;;21.73;43.61;101004.09;5069895;28;45515;-81
2023/05/21 08:08:28;;;;;;;;;14.75;12.75;;;;;21.74;43.35;101005.78;5052931;28;54559;-74
2023/05/21 08:10:53;;;;;;;;;16.50;12.75;;;;;21.78;43.18;101009.97;5060897;27;46907;-78
2023/05/21 08:13:19;;;;;;;;;14.25;12.75;;;;;21.77;43.03;101003.78;5059325;28;45605;-75
2023/05/21 08:15:44;;;;;;;;;15.75;12.75;;;;;21.79;43.12;101015.16;5059723;28;45367;-74
2023/05/21 08:18:10;;;;;;;;;12.75;12.50;;;;;21.82;43.55;101007.94;5069742;28;45499;-72
2023/05/21 08:20:35;;;;;;;;;13.25;11.00;;;;;21.84;43.51;101003.34;5063820;27;45991;-73
2023/05/21 08:23:01;;;;;;;;;12.50;10.25;;;;;21.84;43.49;101001.53;5067364;28;45616;-72
2023/05/21 08:25:26;;;;;;;;;14.00;11.00;;;;;21.83;43.37;100996.31;5080840;27;45481;-72
2023/05/21 08:27:52;;;;;;;;;9.75;9.75;;;;;21.87;43.12;100998.66;5060842;28;45328;-88
2023/05/21 08:30:17;;;;;;;;;9.25;9.25;;;;;21.87;43.32;100985.34;5060868;27;59928;-73
2023/05/21 08:32:43;;;;;;;;;10.50;8.75;;;;;21.89;43.40;100987.91;5073795;28;45409;-81
2023/05/21 08:35:08;;;;;;;;;8.50;8.50;;;;;21.90;43.46;100976.25;5079944;27;45504;-84
2023/05/21 08:37:33;;;;;;;;;9.00;7.50;;;;;21.91;43.36;100977.97;5071064;28;45528;-74
2023/05/21 08:39:59;;;;;;;;;8.00;8.00;;;;;21.92;43.06;100980.53;5068908;27;48058;-75
2023/05/21 08:42:29;;;;;;;;;7.25;7.25;;;;;21.93;43.51;100987.56;5067694;28;48354;-85
2023/05/21 08:44:58;;;;;;;;;10.00;9.75;;;;;21.91;43.26;100972.66;5065436;28;45530;-82
2023/05/21 08:47:26;;;;;;;;;7.75;7.25;;;;;21.94;43.15;100988.44;5065411;28;45631;-79
2023/05/21 08:49:52;;;;;;;;;9.00;7.00;;;;;21.92;43.14;100980.53;5063794;27;45418;-78
2023/05/21 08:52:18;;;;;;;;;7.25;6.75;;;;;21.94;43.50;100983.94;5077284;28;54584;-74
2023/05/21 08:54:45;;;;;;;;;8.00;7.00;;;;;21.93;43.08;100976.91;5067691;28;45685;-73
2023/05/21 08:57:11;;;;;;;;;10.25;9.00;;;;;21.93;43.66;100989.38;5073366;28;45277;-73
2023/05/21 08:59:38;;;;;;;;;7.75;7.75;;;;;21.97;43.27;100980.19;5075296;27;45378;-74
2023/05/21 09:02:04;;;;;;;;;9.75;8.00;;;;;21.96;43.49;100968.69;5060039;28;45394;-73
2023/05/21 09:04:31;;;;;;;;;10.00;9.00;;;;;21.97;43.49;100974.88;5064109;28;45624;-73
2023/05/21 09:06:56;;;;;;;;;8.25;7.25;;;;;21.97;42.99;100972.19;5069985;28;45221;-73
2023/05/21 09:09:32;;;;;;;;;7.25;7.00;;;;;21.96;43.27;100973.19;5062567;27;45415;-73
2023/05/21 09:11:57;;;;;;;;;6.50;6.25;;;;;21.98;43.48;100974.75;5058848;28;45926;-73
2023/05/21 09:14:23;;;;;;;;;10.00;8.75;;;;;21.99;43.44;100970.28;5064560;28;45817;-73
2023/05/21 09:16:48;;;;;;;;;9.25;7.75;;;;;22.00;43.51;100972.00;5066161;28;72955;-73
2023/05/21 09:19:14;;;;;;;;;6.50;6.50;;;;;22.00;43.38;100978.16;5075061;27;45939;-73
2023/05/21 09:21:39;;;;;;;;;8.75;7.00;;;;;21.96;42.89;100967.84;5070115;28;45328;-73
2023/05/21 09:24:05;;;;;;;;;8.00;6.25;;;;;21.98;43.04;100980.09;5074445;28;45320;-73
2023/05/21 09:26:30;;;;;;;;;6.50;6.50;;;;;22.01;43.46;100984.38;5066998;28;45434;-73
2023/05/21 09:28:57;;;;;;;;;7.50;6.00;;;;;22.01;43.41;100981.69;5069201;28;45451;-73
2023/05/21 09:31:23;;;;;;;;;8.00;7.00;;;;;22.02;42.91;100980.72;5083776;27;45374;-73
2023/05/21 09:33:49;;;;;;;;;8.75;6.75;;;;;21.98;43.04;100974.75;5063486;28;45403;-73
2023/05/21 09:36:18;;;;;;;;;8.00;5.25;;;;;22.02;43.34;100985.22;5076017;28;45532;-73
2023/05/21 09:38:44;;;;;;;;;8.25;8.25;;;;;22.01;43.58;100973.72;5069274;28;45426;-73
2023/05/21 09:41:09;;;;;;;;;7.75;7.00;;;;;22.03;43.07;100992.22;5073472;27;60298;-73
2023/05/21 09:43:35;;;;;;;;;7.00;7.00;;;;;22.00;43.14;100970.16;5059364;28;58458;-73
2023/05/21 09:46:00;;;;;;;;;11.00;7.00;;;;;22.02;43.06;100975.41;5047903;27;45839;-73
2023/05/21 09:48:40;;;;;;;;;7.50;7.00;;;;;22.03;42.95;100978.91;5059793;27;73139;-73
2023/05/21 09:51:16;;;;;;;;;8.75;5.75;;;;;22.02;43.54;100977.22;5060806;28;46898;-73
2023/05/21 09:53:43;;;;;;;;;8.75;5.75;;;;;22.02;43.34;100975.41;5063164;27;45285;-73
2023/05/21 09:56:09;;;;;;;;;6.50;6.25;;;;;22.00;42.94;100970.16;5063700;28;45589;-73
2023/05/21 09:58:34;;;;;;;;;7.25;5.50;;;;;22.03;43.17;100962.91;5059822;27;45626;-73
2023/05/21 10:01:02;;;;;;;;;8.50;7.00;;;;;22.03;43.39;100963.78;5057858;28;46516;-73
2023/05/21 10:03:29;;;;;;;;;6.75;6.75;;;;;22.03;43.52;100955.78;5058815;28;66154;-73
2023/05/21 10:05:56;;;;;;;;;5.75;5.25;;;;;22.07;43.07;100948.41;5063247;28;67864;-73
2023/05/21 10:08:25;;;;;;;;;7.75;6.25;;;;;22.06;43.30;100947.59;5089911;27;61460;-72
2023/05/21 10:10:50;;;;;;;;;10.00;6.75;;;;;22.04;43.25;100943.31;5067849;27;45985;-73
2023/05/21 10:13:19;;;;;;;;;9.00;6.50;;;;;22.02;43.61;100945.22;5059894;28;58954;-73
2023/05/21 10:15:47;;;;;;;;;9.25;8.50;;;;;22.05;43.04;100945.03;5068802;28;45429;-73
2023/05/21 10:18:12;;;;;;;;;9.50;8.00;;;;;22.04;42.93;100946.81;5061914;28;48047;-73
2023/05/21 10:20:38;;;;;;;;;7.25;7.00;;;;;22.05;43.06;100940.53;5072859;27;45556;-73
2023/05/21 10:23:04;;;;;;;;;8.25;7.75;;;;;22.06;43.52;100944.91;5081809;27;45560;-73
2023/05/21 10:25:33;;;;;;;;;8.50;7.25;;;;;22.06;43.37;100958.25;5076562;28;45398;-73
2023/05/21 10:27:59;;;;;;;;;7.00;6.75;;;;;22.06;43.14;100960.91;5061602;28;56600;-73
2023/05/21 10:30:24;;;;;;;;;7.50;7.50;;;;;22.05;43.07;100958.34;5056587;28;46030;-73
2023/05/21 10:32:50;;;;;;;;;8.25;6.00;;;;;22.07;43.27;100956.41;5071031;28;45509;-73
2023/05/21 10:35:16;;;;;;;;;10.00;8.25;;;;;22.07;42.97;100945.75;5072240;28;62922;-73
2023/05/21 10:37:45;;;;;;;;;9.25;7.50;;;;;22.08;42.88;100947.44;5062498;27;45388;-73
2023/05/21 10:40:11;;;;;;;;;6.00;6.00;;;;;22.07;43.45;100935.09;5053490;28;45740;-73
2023/05/21 10:43:05;;;;;;;;;9.50;8.00;;;;;22.08;43.04;100950.09;5053086;28;45356;-73
2023/05/21 10:45:42;;;;;;;;;6.75;6.75;;;;;22.08;43.39;100952.78;5065175;27;45582;-73
2023/05/21 10:48:32;;;;;;;;;5.25;5.25;;;;;22.06;43.28;100939.59;5045985;28;47554;-73
2023/05/21 10:51:04;;;;;;;;;7.00;7.00;;;;;22.08;43.03;100932.31;5058325;28;45515;-73
2023/05/21 10:54:07;;;;;;;;;8.00;7.00;;;;;22.09;42.88;100936.69;5074514;28;45451;-73
2023/05/21 10:56:42;;;;;;;;;8.50;7.00;;;;;22.10;43.14;100940.22;5064720;28;45372;-73
2023/05/21 10:59:35;;;;;;;;;6.50;6.50;;;;;22.10;43.45;100937.56;5075560;27;46310;-74
2023/05/21 11:02:01;;;;;;;;;8.25;8.25;;;;;22.08;43.21;100926.13;5071623;28;45937;-73
2023/05/21 11:04:27;;;;;;;;;6.00;6.00;;;;;22.10;43.13;100929.56;5074518;27;45636;-73
2023/05/21 11:06:53;;;;;;;;;7.50;7.00;;;;;22.10;43.00;100935.72;5077538;28;45599;-73
2023/05/21 11:09:18;;;;;;;;;7.00;6.50;;;;;22.09;43.04;100933.16;5093711;27;45523;-73
2023/05/21 11:11:50;;;;;;;;;6.00;6.00;;;;;22.10;42.98;100930.41;5060986;28;45630;-73
2023/05/21 11:14:42;;;;;;;;;8.25;6.25;;;;;22.08;43.06;100929.66;5058729;28;45487;-73
2023/05/21 11:17:39;;;;;;;;;8.50;8.25;;;;;22.11;42.93;100924.09;5068304;28;45636;-73
2023/05/21 11:20:10;;;;;;;;;9.25;7.00;;;;;22.11;43.29;100915.25;5067117;27;45643;-73